createdAt,value
2019-02-28T00:01:01.857Z,5.30
2019-02-28T00:03:32.494Z,5.20
2019-02-28T00:06:03.179Z,5.30
2019-02-28T00:08:34.056Z,5.30
2019-02-28T00:11:05.050Z,5.30
2019-02-28T00:13:36.596Z,5.30
2019-02-28T00:16:07.012Z,5.30
2019-02-28T00:18:37.668Z,5.30
2019-02-28T00:21:08.156Z,5.30
2019-02-28T00:23:38.790Z,5.30
2019-02-28T00:26:11.641Z,5.30
2019-02-28T00:28:41.451Z,5.30
2019-02-28T00:31:14.213Z,5.30
2019-02-28T00:33:44.176Z,5.30
2019-02-28T00:36:16.310Z,5.40
2019-02-28T00:38:47.116Z,5.30
2019-02-28T00:41:17.851Z,5.20
2019-02-28T00:43:48.397Z,5.20
2019-02-28T00:46:19.162Z,5.10
2019-02-28T00:48:53.002Z,5.00
2019-02-28T00:51:22.431Z,4.90
2019-02-28T00:53:53.054Z,4.90
2019-02-28T00:56:23.579Z,4.70
2019-02-28T00:58:55.312Z,4.60
2019-02-28T01:01:25.843Z,4.50
2019-02-28T01:03:58.020Z,4.40
2019-02-28T01:06:28.767Z,4.30
2019-02-28T01:08:59.396Z,4.30
2019-02-28T01:11:29.872Z,4.10
2019-02-28T01:14:01.687Z,4.00
2019-02-28T01:16:32.479Z,3.90
2019-02-28T01:19:03.334Z,3.70
2019-02-28T01:21:33.780Z,3.70
2019-02-28T01:24:04.483Z,3.60
2019-02-28T01:26:35.012Z,3.50
2019-02-28T01:29:05.668Z,3.40
2019-02-28T01:31:36.120Z,3.30
2019-02-28T01:34:06.705Z,3.20
2019-02-28T01:36:37.572Z,3.00
2019-02-28T01:39:08.411Z,3.10
2019-02-28T01:41:38.980Z,3.00
2019-02-28T01:44:09.551Z,2.90
2019-02-28T01:46:39.929Z,2.80
2019-02-28T01:49:10.322Z,2.80
2019-02-28T01:51:41.093Z,2.80
2019-02-28T01:54:11.563Z,2.70
2019-02-28T01:56:42.024Z,2.60
2019-02-28T01:59:12.704Z,2.50
2019-02-28T02:01:43.163Z,2.50
2019-02-28T02:04:13.699Z,2.50
2019-02-28T02:06:44.439Z,2.50
2019-02-28T02:09:15.411Z,2.40
2019-02-28T02:11:45.917Z,2.40
2019-02-28T02:14:16.574Z,2.30
2019-02-28T02:16:47.144Z,2.30
2019-02-28T02:19:18.706Z,2.30
2019-02-28T02:21:49.481Z,2.20
2019-02-28T02:24:20.141Z,2.10
2019-02-28T02:26:50.535Z,2.00
2019-02-28T02:29:21.136Z,2.00
2019-02-28T02:31:51.751Z,1.90
2019-02-28T02:34:24.343Z,1.80
2019-02-28T02:36:54.627Z,1.90
2019-02-28T02:39:25.540Z,1.90
2019-02-28T02:41:56.225Z,1.90
2019-02-28T02:44:30.744Z,1.90
2019-02-28T02:46:59.103Z,1.80
2019-02-28T02:49:29.731Z,1.80
2019-02-28T02:52:00.239Z,1.70
2019-02-28T02:54:30.841Z,1.60
2019-02-28T02:57:01.210Z,1.60
2019-02-28T02:59:37.478Z,1.70
2019-02-28T03:02:03.627Z,1.70
2019-02-28T03:04:35.063Z,1.70
2019-02-28T03:07:05.881Z,1.60
2019-02-28T03:09:36.298Z,1.70
2019-02-28T03:12:06.595Z,1.80
2019-02-28T03:14:37.368Z,1.70
2019-02-28T03:17:11.488Z,1.60
2019-02-28T03:19:39.705Z,1.60
2019-02-28T03:22:10.682Z,1.60
2019-02-28T03:24:41.223Z,1.50
2019-02-28T03:27:18.726Z,1.40
2019-02-28T03:29:44.768Z,1.40
2019-02-28T03:32:15.193Z,1.30
2019-02-28T03:34:55.348Z,1.20
2019-02-28T03:37:18.020Z,1.30
2019-02-28T03:39:48.415Z,1.20
2019-02-28T03:42:18.801Z,1.20
2019-02-28T03:44:56.562Z,1.20
2019-02-28T03:47:23.903Z,1.30
2019-02-28T03:49:53.793Z,1.20
2019-02-28T03:52:24.414Z,1.10
2019-02-28T03:54:55.053Z,1.10
2019-02-28T03:57:29.355Z,1.20
2019-02-28T03:59:57.899Z,1.20
2019-02-28T04:02:28.698Z,1.20
2019-02-28T04:04:59.298Z,1.10
2019-02-28T04:07:30.437Z,1.00
2019-02-28T04:10:01.270Z,0.90
2019-02-28T04:12:32.253Z,0.90
2019-02-28T04:15:05.912Z,0.70
2019-02-28T04:17:35.153Z,0.70
2019-02-28T04:20:05.987Z,0.70
2019-02-28T04:22:36.724Z,0.70
2019-02-28T04:25:07.893Z,0.70
2019-02-28T04:27:40.585Z,0.60
2019-02-28T04:30:10.822Z,0.60
2019-02-28T04:32:41.300Z,0.50
2019-02-28T04:35:12.136Z,0.60
2019-02-28T04:37:46.761Z,0.50
2019-02-28T04:40:14.639Z,0.50
2019-02-28T04:42:45.087Z,0.50
2019-02-28T04:45:15.584Z,0.60
2019-02-28T04:47:46.186Z,0.70
2019-02-28T04:50:16.732Z,0.80
2019-02-28T04:52:48.239Z,0.80
2019-02-28T04:55:18.819Z,1.00
2019-02-28T04:57:51.590Z,0.90
2019-02-28T05:00:21.175Z,0.80
2019-02-28T05:02:54.816Z,0.80
2019-02-28T05:05:23.707Z,0.70
2019-02-28T05:07:54.195Z,0.70
2019-02-28T05:10:24.621Z,0.80
2019-02-28T05:12:55.060Z,0.80
2019-02-28T05:15:25.777Z,1.00
2019-02-28T05:17:56.876Z,1.20
2019-02-28T05:20:27.773Z,1.30
2019-02-28T05:22:59.260Z,1.40
2019-02-28T05:25:30.416Z,1.30
2019-02-28T05:28:00.840Z,1.20
2019-02-28T05:30:31.364Z,1.10
2019-02-28T05:33:01.967Z,1.10
2019-02-28T05:35:32.671Z,1.00
2019-02-28T05:38:03.255Z,1.00
2019-02-28T05:40:34.376Z,1.00
2019-02-28T05:43:04.824Z,0.90
2019-02-28T05:45:35.527Z,0.90
2019-02-28T05:48:07.041Z,0.90
2019-02-28T05:50:37.568Z,0.80
2019-02-28T05:53:09.257Z,0.70
2019-02-28T05:55:42.630Z,0.70
2019-02-28T05:58:17.537Z,0.70
2019-02-28T06:00:45.448Z,0.70
2019-02-28T06:03:15.896Z,0.70
2019-02-28T06:05:47.143Z,0.70
2019-02-28T06:08:18.298Z,0.70
2019-02-28T06:10:48.877Z,0.70
2019-02-28T06:13:19.455Z,0.70
2019-02-28T06:15:50.236Z,0.70
2019-02-28T06:18:20.672Z,0.80
2019-02-28T06:20:52.189Z,0.80
2019-02-28T06:23:22.711Z,0.80
2019-02-28T06:25:55.773Z,0.80
2019-02-28T06:28:27.700Z,0.80
2019-02-28T06:30:57.588Z,0.80
2019-02-28T06:33:30.695Z,0.80
2019-02-28T06:36:04.563Z,0.80
2019-02-28T06:38:35.370Z,1.00
2019-02-28T06:41:07.585Z,1.10
2019-02-28T06:43:38.434Z,1.10
2019-02-28T06:46:09.396Z,1.10
2019-02-28T06:48:40.943Z,1.20
2019-02-28T06:51:11.556Z,1.20
2019-02-28T06:53:42.540Z,1.30
2019-02-28T06:56:12.989Z,1.30
2019-02-28T06:58:43.317Z,1.40
2019-02-28T07:01:13.740Z,1.50
2019-02-28T07:03:53.147Z,1.60
2019-02-28T07:06:16.581Z,1.70
2019-02-28T07:08:47.785Z,1.80
2019-02-28T07:11:19.912Z,2.00
2019-02-28T07:13:50.625Z,2.00
2019-02-28T07:16:21.204Z,2.10
2019-02-28T07:18:53.839Z,2.40
2019-02-28T07:21:23.811Z,2.40
2019-02-28T07:23:54.336Z,2.50
2019-02-28T07:26:25.184Z,2.60
2019-02-28T07:28:55.676Z,2.80
2019-02-28T07:31:26.268Z,2.80
2019-02-28T07:33:56.701Z,2.90
2019-02-28T07:36:29.614Z,3.10
2019-02-28T07:39:04.440Z,3.20
2019-02-28T07:41:35.380Z,3.30
2019-02-28T07:44:08.797Z,3.30
2019-02-28T07:46:42.261Z,3.40
2019-02-28T07:49:11.580Z,3.60
2019-02-28T07:51:42.415Z,3.70
2019-02-28T07:54:15.953Z,3.80
2019-02-28T07:56:46.920Z,3.90
2019-02-28T07:59:19.350Z,4.00
2019-02-28T08:01:50.821Z,4.10
2019-02-28T08:04:21.272Z,4.20
2019-02-28T08:06:51.781Z,4.20
2019-02-28T08:09:32.023Z,4.50
2019-02-28T08:12:04.041Z,4.60
2019-02-28T08:14:34.399Z,4.70
2019-02-28T08:17:05.507Z,4.80
2019-02-28T08:19:37.169Z,4.80
2019-02-28T08:22:07.832Z,5.00
2019-02-28T08:24:38.345Z,5.00
2019-02-28T08:27:09.016Z,5.20
2019-02-28T08:29:44.682Z,5.40
2019-02-28T08:32:11.843Z,5.50
2019-02-28T08:34:43.896Z,5.60
2019-02-28T08:37:14.440Z,5.70
2019-02-28T08:39:45.364Z,5.80
2019-02-28T08:42:16.072Z,6.00
2019-02-28T08:44:46.626Z,6.10
2019-02-28T08:47:17.900Z,6.20
2019-02-28T08:49:49.285Z,6.30
2019-02-28T08:52:19.912Z,6.40
2019-02-28T08:54:50.536Z,6.50
2019-02-28T08:57:22.016Z,6.60
2019-02-28T08:59:56.334Z,6.70
2019-02-28T09:02:25.288Z,6.90
2019-02-28T09:04:55.880Z,7.00
2019-02-28T09:07:29.115Z,7.00
2019-02-28T09:09:59.908Z,7.00
2019-02-28T09:12:33.370Z,7.00
2019-02-28T09:15:02.480Z,7.10
2019-02-28T09:17:34.147Z,7.20
2019-02-28T09:20:07.550Z,7.30
2019-02-28T09:22:36.916Z,7.40
2019-02-28T09:25:09.095Z,7.40
2019-02-28T09:27:39.788Z,7.60
2019-02-28T09:30:31.582Z,7.60
2019-02-28T09:33:02.297Z,7.70
2019-02-28T09:35:33.807Z,7.80
2019-02-28T09:38:11.013Z,7.90
2019-02-28T09:40:38.585Z,8.00
2019-02-28T09:43:09.165Z,8.10
2019-02-28T09:45:40.897Z,8.00
2019-02-28T09:48:11.718Z,8.20
2019-02-28T09:50:42.252Z,8.20
2019-02-28T09:53:15.546Z,8.30
2019-02-28T09:55:45.106Z,8.30
2019-02-28T09:58:16.289Z,8.50
2019-02-28T10:00:50.389Z,8.50
2019-02-28T10:03:21.188Z,8.60
2019-02-28T10:05:51.617Z,8.50
2019-02-28T10:08:22.285Z,8.50
2019-02-28T10:10:55.876Z,8.60
2019-02-28T10:13:25.854Z,8.60
2019-02-28T10:15:56.296Z,8.70
2019-02-28T10:18:26.668Z,8.70
2019-02-28T10:20:59.016Z,8.80
2019-02-28T10:23:29.663Z,8.80
2019-02-28T10:26:00.480Z,9.00
2019-02-28T10:28:31.957Z,9.00
2019-02-28T10:31:02.384Z,9.10
2019-02-28T10:33:32.938Z,9.10
2019-02-28T10:36:03.853Z,9.30
2019-02-28T10:38:34.417Z,9.20
2019-02-28T10:41:05.011Z,9.40
2019-02-28T10:43:37.968Z,9.40
2019-02-28T10:46:08.439Z,9.50
2019-02-28T10:48:50.442Z,9.50
2019-02-28T10:51:13.969Z,9.60
2019-02-28T10:53:44.318Z,9.60
2019-02-28T10:56:14.985Z,9.60
2019-02-28T10:58:47.127Z,9.70
2019-02-28T11:01:18.537Z,9.80
2019-02-28T11:03:49.396Z,9.80
2019-02-28T11:06:20.180Z,9.80
2019-02-28T11:08:52.208Z,9.80
2019-02-28T11:11:23.870Z,9.90
2019-02-28T11:13:54.413Z,10.00
2019-02-28T11:16:25.112Z,10.00
2019-02-28T11:18:56.044Z,10.10
2019-02-28T11:21:29.723Z,10.10
2019-02-28T11:23:59.453Z,10.20
2019-02-28T11:26:30.256Z,10.20
2019-02-28T11:29:03.169Z,10.20
2019-02-28T11:31:33.008Z,10.30
2019-02-28T11:34:03.905Z,10.40
2019-02-28T11:36:34.991Z,10.40
2019-02-28T11:39:07.686Z,10.40
2019-02-28T11:41:38.821Z,10.50
2019-02-28T11:44:11.992Z,10.50
2019-02-28T11:46:41.842Z,10.60
2019-02-28T11:49:13.630Z,10.60
2019-02-28T11:51:44.608Z,10.70
2019-02-28T11:54:15.069Z,10.90
2019-02-28T11:56:45.970Z,10.90
2019-02-28T11:59:16.540Z,10.70
2019-02-28T12:01:48.454Z,10.70
2019-02-28T12:04:19.037Z,10.70
2019-02-28T12:06:50.401Z,10.80
2019-02-28T12:09:21.273Z,10.80
2019-02-28T12:11:52.294Z,13.00
2019-02-28T12:14:26.417Z,15.20
2019-02-28T12:16:59.224Z,16.60
2019-02-28T12:19:30.867Z,17.90
2019-02-28T12:22:09.101Z,19.50
2019-02-28T12:24:39.810Z,21.00
2019-02-28T12:27:11.270Z,20.60
2019-02-28T12:29:42.107Z,21.50
2019-02-28T12:32:13.209Z,22.20
2019-02-28T12:34:43.885Z,22.60
2019-02-28T12:37:14.735Z,22.00
2019-02-28T12:39:45.105Z,22.30
2019-02-28T12:42:15.939Z,22.00
2019-02-28T12:44:48.994Z,23.90
2019-02-28T12:47:18.639Z,24.60
2019-02-28T12:49:49.164Z,22.20
2019-02-28T12:52:19.652Z,23.20
2019-02-28T12:54:49.964Z,23.70
2019-02-28T12:57:22.386Z,24.80
2019-02-28T12:59:52.916Z,22.50
2019-02-28T13:02:23.610Z,24.40
2019-02-28T13:04:54.321Z,24.20
2019-02-28T13:07:25.033Z,24.40
2019-02-28T13:09:55.482Z,23.50
2019-02-28T13:12:26.599Z,24.10
2019-02-28T13:14:57.460Z,23.20
2019-02-28T13:17:28.364Z,22.50
2019-02-28T13:20:03.034Z,23.60
2019-02-28T13:22:33.684Z,22.00
2019-02-28T13:25:04.639Z,20.50
2019-02-28T13:27:35.883Z,19.20
2019-02-28T13:30:10.560Z,18.60
2019-02-28T13:32:41.213Z,16.60
2019-02-28T13:35:13.904Z,16.20
2019-02-28T13:37:45.011Z,15.10
2019-02-28T13:40:15.886Z,14.30
2019-02-28T13:42:46.847Z,14.30
2019-02-28T13:45:23.354Z,14.40
2019-02-28T13:47:49.761Z,14.80
2019-02-28T13:50:25.837Z,14.00
2019-02-28T13:53:03.463Z,13.70
2019-02-28T13:55:34.290Z,13.10
2019-02-28T13:58:06.836Z,12.60
2019-02-28T14:00:43.943Z,12.00
2019-02-28T14:03:11.307Z,11.20
2019-02-28T14:05:42.150Z,10.60
2019-02-28T14:08:13.090Z,10.20
2019-02-28T14:10:49.480Z,9.90
2019-02-28T14:13:20.236Z,9.70
2019-02-28T14:15:52.380Z,9.40
2019-02-28T14:18:23.001Z,9.20
2019-02-28T14:20:53.525Z,9.10
2019-02-28T14:23:24.349Z,9.00
2019-02-28T14:25:54.924Z,8.90
2019-02-28T14:28:25.904Z,8.80
2019-02-28T14:30:57.580Z,8.80
2019-02-28T14:33:28.690Z,8.60
2019-02-28T14:35:59.308Z,8.60
2019-02-28T14:38:32.947Z,8.50
2019-02-28T14:41:02.334Z,8.40
2019-02-28T14:43:33.021Z,8.40
2019-02-28T14:46:03.756Z,8.30
2019-02-28T14:48:36.624Z,8.20
2019-02-28T14:51:06.288Z,8.10
2019-02-28T14:53:36.910Z,8.10
2019-02-28T14:56:08.445Z,7.90
2019-02-28T14:58:39.167Z,7.90
2019-02-28T15:01:09.773Z,7.80
2019-02-28T15:03:41.261Z,7.70
2019-02-28T15:06:11.671Z,7.70
2019-02-28T15:08:42.520Z,7.70
2019-02-28T15:11:12.923Z,7.70
2019-02-28T15:13:43.957Z,7.60
2019-02-28T15:16:14.437Z,7.60
2019-02-28T15:18:47.475Z,7.50
2019-02-28T15:21:17.856Z,7.50
2019-02-28T15:23:48.375Z,7.40
2019-02-28T15:26:18.984Z,7.30
2019-02-28T15:28:49.591Z,7.30
2019-02-28T15:31:19.992Z,7.10
2019-02-28T15:33:50.540Z,7.10
2019-02-28T15:36:24.075Z,7.00
2019-02-28T15:38:53.304Z,7.10
2019-02-28T15:41:23.623Z,7.00
2019-02-28T15:43:54.446Z,6.90
2019-02-28T15:46:24.867Z,6.80
2019-02-28T15:48:55.742Z,6.70
2019-02-28T15:51:29.405Z,6.80
2019-02-28T15:53:58.480Z,6.60
2019-02-28T15:56:34.768Z,6.60
2019-02-28T15:59:08.067Z,6.50
2019-02-28T16:01:38.500Z,6.50
2019-02-28T16:04:09.195Z,6.20
2019-02-28T16:06:39.724Z,6.20
2019-02-28T16:09:12.845Z,6.00
2019-02-28T16:11:43.332Z,6.00
2019-02-28T16:14:14.770Z,5.90
2019-02-28T16:16:45.294Z,5.80
2019-02-28T16:19:18.916Z,5.80
2019-02-28T16:21:48.015Z,5.70
2019-02-28T16:24:18.533Z,5.60
2019-02-28T16:26:48.955Z,5.50
2019-02-28T16:29:21.572Z,5.30
2019-02-28T16:31:54.580Z,5.20
2019-02-28T16:34:25.043Z,5.10
2019-02-28T16:36:57.478Z,5.00
2019-02-28T16:39:27.652Z,5.00
2019-02-28T16:41:58.147Z,4.70
2019-02-28T16:44:30.927Z,4.60
2019-02-28T16:50:03.899Z,4.50
2019-02-28T16:52:37.312Z,4.30
2019-02-28T16:55:10.096Z,4.10
2019-02-28T16:57:43.621Z,4.10
2019-02-28T17:00:13.144Z,4.00
2019-02-28T17:02:43.907Z,3.90
2019-02-28T17:05:14.488Z,3.80
2019-02-28T17:07:44.904Z,3.70
2019-02-28T17:10:18.304Z,3.60
2019-02-28T17:13:12.334Z,3.40
2019-02-28T17:16:00.387Z,3.30
2019-02-28T17:18:27.964Z,3.20
2019-02-28T17:20:58.625Z,3.10
2019-02-28T17:23:29.102Z,3.00
2019-02-28T17:25:59.664Z,2.80
2019-02-28T17:28:55.808Z,3.00
2019-02-28T17:31:54.178Z,3.10
2019-02-28T17:38:00.280Z,3.00
2019-02-28T17:40:31.445Z,3.10
2019-02-28T17:43:02.241Z,2.90
2019-02-28T17:45:34.860Z,2.70
2019-02-28T17:48:52.662Z,2.70
2019-02-28T17:51:59.485Z,2.60
2019-02-28T17:55:27.010Z,2.50
2019-02-28T17:58:06.857Z,2.40
2019-02-28T18:01:28.726Z,2.80
2019-02-28T18:04:33.624Z,2.90
2019-02-28T18:07:38.831Z,2.70
2019-02-28T18:14:09.165Z,2.30
2019-02-28T18:17:01.312Z,2.20
2019-02-28T18:20:34.704Z,2.20
2019-02-28T18:23:42.171Z,2.30
2019-02-28T18:26:47.812Z,2.50
2019-02-28T18:30:12.039Z,2.50
2019-02-28T18:32:42.456Z,2.30
2019-02-28T18:35:15.479Z,2.20
2019-02-28T18:37:46.128Z,2.10
2019-02-28T18:40:16.813Z,2.00
2019-02-28T18:42:47.436Z,2.00
2019-02-28T18:45:19.124Z,1.90
2019-02-28T18:47:49.964Z,1.70
2019-02-28T18:50:20.528Z,1.70
2019-02-28T18:52:52.015Z,1.80
2019-02-28T18:55:22.512Z,1.70
2019-02-28T18:57:53.104Z,1.60
2019-02-28T19:00:23.980Z,1.50
2019-02-28T19:02:54.612Z,1.40
2019-02-28T19:05:25.936Z,1.30
2019-02-28T19:07:56.622Z,1.20
2019-02-28T19:10:26.983Z,1.10
2019-02-28T19:12:58.034Z,1.00
2019-02-28T19:15:28.496Z,0.90
2019-02-28T19:17:58.912Z,0.90
2019-02-28T19:20:29.312Z,0.90
2019-02-28T19:23:00.113Z,0.90
2019-02-28T19:25:30.609Z,0.90
2019-02-28T19:28:02.095Z,0.80
2019-02-28T19:30:32.672Z,0.80
2019-02-28T19:33:03.335Z,0.80
2019-02-28T19:35:33.781Z,0.70
2019-02-28T19:38:04.413Z,0.60
2019-02-28T19:40:34.924Z,0.60
2019-02-28T19:43:05.404Z,0.50
2019-02-28T19:45:36.308Z,0.40
2019-02-28T19:48:07.020Z,0.30
2019-02-28T19:50:37.358Z,0.20
2019-02-28T19:53:08.035Z,0.10
2019-02-28T19:55:39.476Z,0.10
2019-02-28T19:58:10.181Z,0.00
2019-02-28T20:00:40.736Z,0.00
2019-02-28T20:03:11.696Z,-0.10
2019-02-28T20:05:42.358Z,-0.10
2019-02-28T20:08:12.756Z,-0.20
2019-02-28T20:10:43.464Z,-0.30
2019-02-28T20:13:14.055Z,-0.30
2019-02-28T20:15:44.459Z,-0.30
2019-02-28T20:18:15.157Z,-0.30
2019-02-28T20:20:45.756Z,-0.40
2019-02-28T20:23:16.426Z,-0.40
2019-02-28T20:25:46.916Z,-0.50
2019-02-28T20:28:17.945Z,-0.50
2019-02-28T20:30:48.484Z,-0.50
2019-02-28T20:33:19.668Z,-0.60
2019-02-28T20:35:51.182Z,-0.60
2019-02-28T20:38:21.987Z,-0.60
2019-02-28T20:40:52.524Z,-0.60
2019-02-28T20:43:23.293Z,-0.70
2019-02-28T20:45:53.792Z,-0.60
2019-02-28T20:48:24.372Z,-0.70
2019-02-28T20:50:54.776Z,-0.70
2019-02-28T20:53:25.449Z,-0.80
2019-02-28T20:55:55.895Z,-0.80
2019-02-28T20:58:26.709Z,-0.80
2019-02-28T21:00:57.174Z,-0.70
2019-02-28T21:03:27.766Z,-0.80
2019-02-28T21:05:58.122Z,-0.80
2019-02-28T21:08:29.714Z,-0.90
2019-02-28T21:11:00.211Z,-0.90
2019-02-28T21:13:30.624Z,-1.00
2019-02-28T21:16:01.015Z,-1.00
2019-02-28T21:18:33.324Z,-1.10
2019-02-28T21:21:04.012Z,-1.10
2019-02-28T21:23:34.701Z,-1.20
2019-02-28T21:26:05.120Z,-1.20
2019-02-28T21:28:35.601Z,-1.20
2019-02-28T21:31:06.220Z,-1.20
2019-02-28T21:33:37.119Z,-1.20
2019-02-28T21:36:07.492Z,-1.20
2019-02-28T21:38:39.009Z,-1.20
2019-02-28T21:41:09.472Z,-1.20
2019-02-28T21:43:40.042Z,-1.30
2019-02-28T21:46:10.528Z,-1.30
2019-02-28T21:48:41.177Z,-1.30
2019-02-28T21:51:11.589Z,-1.30
2019-02-28T21:53:43.428Z,-1.30
2019-02-28T21:56:13.924Z,-1.40
2019-02-28T21:58:44.443Z,-1.40
2019-02-28T22:01:14.932Z,-1.40
2019-02-28T22:03:46.776Z,-1.30
2019-02-28T22:06:17.080Z,-1.30
2019-02-28T22:08:47.476Z,-1.40
2019-02-28T22:11:18.155Z,-1.40
2019-02-28T22:13:48.667Z,-1.40
2019-02-28T22:16:19.256Z,-1.40
2019-02-28T22:18:50.408Z,-1.30
2019-02-28T22:21:20.940Z,-1.30
2019-02-28T22:23:51.360Z,-1.30
2019-02-28T22:26:22.261Z,-1.40
2019-02-28T22:28:52.744Z,-1.30
2019-02-28T22:31:44.102Z,-1.30
2019-02-28T22:34:20.902Z,-1.30
2019-02-28T22:36:51.416Z,-1.30
2019-02-28T22:39:21.892Z,-1.20
2019-02-28T22:41:52.331Z,-1.20
2019-02-28T22:44:22.997Z,-1.20
2019-02-28T22:46:53.436Z,-1.20
2019-02-28T22:49:23.944Z,-1.20
2019-02-28T22:51:54.380Z,-1.20
2019-02-28T22:54:24.960Z,-1.20
2019-02-28T22:56:55.412Z,-1.20
2019-02-28T22:59:25.846Z,-1.20
2019-02-28T23:01:56.649Z,-1.20
2019-02-28T23:04:27.140Z,-1.30
2019-02-28T23:06:57.596Z,-1.30
2019-02-28T23:09:27.972Z,-1.40
2019-02-28T23:11:58.493Z,-1.40
2019-02-28T23:14:29.086Z,-1.50
2019-02-28T23:16:59.654Z,-1.50
2019-02-28T23:19:30.188Z,-1.60
2019-02-28T23:22:00.772Z,-1.60
2019-02-28T23:24:31.145Z,-1.60
2019-02-28T23:27:15.039Z,-1.60
2019-02-28T23:29:49.489Z,-1.70
2019-02-28T23:32:41.090Z,-1.70
2019-02-28T23:35:15.496Z,-1.80
2019-02-28T23:37:46.061Z,-1.80
2019-02-28T23:40:16.475Z,-1.80
2019-02-28T23:42:46.992Z,-1.70
2019-02-28T23:45:17.544Z,-1.60
2019-02-28T23:47:47.979Z,-1.70
2019-02-28T23:50:18.344Z,-1.70
2019-02-28T23:52:48.964Z,-1.70
2019-02-28T23:55:19.400Z,-1.80
2019-02-28T23:57:50.001Z,-1.80
